sensor_id;sensor_type;location;lat;lon;timestamp;P1;P2;P0
49686;PMS5003;36064;38.180;-122.272;2022-09-09T00:00:00;10.4;9.2;
49686;PMS5003;36064;38.180;-122.272;2022-09-09T00:05:04;10.4;9.2;
49686;PMS5003;36064;38.180;-122.272;2022-09-09T00:10:03;9.0;7.8;
49686;PMS5003;36064;38.180;-122.272;2022-09-09T00:15:02;13.4;10.4;
49686;PMS5003;36064;38.180;-122.272;2022-09-09T00:20:01;10.8;8.4;
49686;PMS5003;36064;38.180;-122.272;2022-09-09T00:25:08;9.0;8.4;
49686;PMS5003;36064;38.180;-122.272;2022-09-09T00:30:01;12.2;9.4;
49686;PMS5003;36064;38.180;-122.272;2022-09-09T00:35:03;14.4;12.6;
49686;PMS5003;36064;38.180;-122.272;2022-09-09T00:40:02;14.4;9.6;
49686;PMS5003;36064;38.180;-122.272;2022-09-09T00:45:02;10.2;9.0;
49686;PMS5003;36064;38.180;-122.272;2022-09-09T00:50:02;7.6;6.6;
49686;PMS5003;36064;38.180;-122.272;2022-09-09T00:55:03;9.6;9.0;
49686;PMS5003;36064;38.180;-122.272;2022-09-09T01:00:18;11.0;10.0;
49686;PMS5003;36064;38.180;-122.272;2022-09-09T01:05:04;12.6;11.4;
49686;PMS5003;36064;38.180;-122.272;2022-09-09T01:10:03;10.2;8.2;
49686;PMS5003;36064;38.180;-122.272;2022-09-09T01:15:03;10.2;8.4;
49686;PMS5003;36064;38.180;-122.272;2022-09-09T01:20:04;9.2;8.2;
49686;PMS5003;36064;38.180;-122.272;2022-09-09T01:25:11;11.0;10.2;
49686;PMS5003;36064;38.180;-122.272;2022-09-09T01:30:00;11.2;9.6;
49686;PMS5003;36064;38.180;-122.272;2022-09-09T01:35:01;12.0;9.4;
49686;PMS5003;36064;38.180;-122.272;2022-09-09T01:40:01;9.0;8.0;
49686;PMS5003;36064;38.180;-122.272;2022-09-09T01:45:00;9.0;8.6;
49686;PMS5003;36064;38.180;-122.272;2022-09-09T01:50:01;11.0;8.2;
49686;PMS5003;36064;38.180;-122.272;2022-09-09T01:55:00;10.6;10.4;
49686;PMS5003;36064;38.180;-122.272;2022-09-09T02:00:02;11.6;10.2;
49686;PMS5003;36064;38.180;-122.272;2022-09-09T02:05:02;12.0;10.4;
49686;PMS5003;36064;38.180;-122.272;2022-09-09T02:10:02;14.2;11.0;
49686;PMS5003;36064;38.180;-122.272;2022-09-09T02:15:03;11.0;9.4;
49686;PMS5003;36064;38.180;-122.272;2022-09-09T02:20:03;10.8;9.2;
49686;PMS5003;36064;38.180;-122.272;2022-09-09T02:25:00;8.6;8.6;
49686;PMS5003;36064;38.180;-122.272;2022-09-09T02:30:01;15.2;14.4;
49686;PMS5003;36064;38.180;-122.272;2022-09-09T02:35:05;13.4;12.2;
49686;PMS5003;36064;38.180;-122.272;2022-09-09T02:40:01;9.0;8.2;
49686;PMS5003;36064;38.180;-122.272;2022-09-09T02:45:00;9.2;9.0;
49686;PMS5003;36064;38.180;-122.272;2022-09-09T02:50:03;8.6;8.2;
49686;PMS5003;36064;38.180;-122.272;2022-09-09T02:55:03;9.8;8.8;
49686;PMS5003;36064;38.180;-122.272;2022-09-09T03:00:00;12.0;11.4;
49686;PMS5003;36064;38.180;-122.272;2022-09-09T03:05:00;13.6;12.2;
49686;PMS5003;36064;38.180;-122.272;2022-09-09T03:10:01;12.4;10.4;
49686;PMS5003;36064;38.180;-122.272;2022-09-09T03:15:00;11.4;11.0;
49686;PMS5003;36064;38.180;-122.272;2022-09-09T03:20:01;10.6;9.2;
49686;PMS5003;36064;38.180;-122.272;2022-09-09T03:25:00;10.6;9.8;
49686;PMS5003;36064;38.180;-122.272;2022-09-09T03:30:00;11.6;11.0;
49686;PMS5003;36064;38.180;-122.272;2022-09-09T03:35:00;14.4;11.6;
49686;PMS5003;36064;38.180;-122.272;2022-09-09T03:40:00;11.2;9.8;
49686;PMS5003;36064;38.180;-122.272;2022-09-09T03:45:01;9.4;6.8;
49686;PMS5003;36064;38.180;-122.272;2022-09-09T03:50:00;12.8;11.0;
49686;PMS5003;36064;38.180;-122.272;2022-09-09T03:55:00;9.8;8.2;
49686;PMS5003;36064;38.180;-122.272;2022-09-09T04:00:01;9.6;7.8;
49686;PMS5003;36064;38.180;-122.272;2022-09-09T04:05:00;8.6;6.4;
49686;PMS5003;36064;38.180;-122.272;2022-09-09T04:10:00;10.8;9.6;
49686;PMS5003;36064;38.180;-122.272;2022-09-09T04:15:00;10.4;9.2;
49686;PMS5003;36064;38.180;-122.272;2022-09-09T04:20:00;11.0;9.8;
49686;PMS5003;36064;38.180;-122.272;2022-09-09T04:25:00;9.2;8.0;
49686;PMS5003;36064;38.180;-122.272;2022-09-09T04:30:00;9.8;8.4;
49686;PMS5003;36064;38.180;-122.272;2022-09-09T04:35:00;8.4;6.8;
49686;PMS5003;36064;38.180;-122.272;2022-09-09T04:40:01;10.6;9.8;
49686;PMS5003;36064;38.180;-122.272;2022-09-09T04:45:01;10.8;9.2;
49686;PMS5003;36064;38.180;-122.272;2022-09-09T04:50:01;8.0;6.8;
49686;PMS5003;36064;38.180;-122.272;2022-09-09T04:55:00;11.2;8.0;
49686;PMS5003;36064;38.180;-122.272;2022-09-09T05:00:01;11.8;9.8;
49686;PMS5003;36064;38.180;-122.272;2022-09-09T05:05:00;12.2;11.0;
49686;PMS5003;36064;38.180;-122.272;2022-09-09T05:10:00;13.6;12.0;
49686;PMS5003;36064;38.180;-122.272;2022-09-09T05:15:00;14.8;12.6;
49686;PMS5003;36064;38.180;-122.272;2022-09-09T05:20:01;13.8;12.6;
49686;PMS5003;36064;38.180;-122.272;2022-09-09T05:25:00;14.8;13.4;
49686;PMS5003;36064;38.180;-122.272;2022-09-09T05:30:00;19.4;15.2;
49686;PMS5003;36064;38.180;-122.272;2022-09-09T05:35:00;15.0;11.4;
49686;PMS5003;36064;38.180;-122.272;2022-09-09T05:40:00;10.8;8.0;
49686;PMS5003;36064;38.180;-122.272;2022-09-09T05:45:01;14.2;11.6;
49686;PMS5003;36064;38.180;-122.272;2022-09-09T05:50:01;14.0;11.8;
49686;PMS5003;36064;38.180;-122.272;2022-09-09T05:55:00;14.0;13.6;
49686;PMS5003;36064;38.180;-122.272;2022-09-09T06:00:01;11.6;10.8;
49686;PMS5003;36064;38.180;-122.272;2022-09-09T06:05:00;15.4;13.4;
49686;PMS5003;36064;38.180;-122.272;2022-09-09T06:10:00;17.0;14.4;
49686;PMS5003;36064;38.180;-122.272;2022-09-09T06:15:00;16.0;13.2;
49686;PMS5003;36064;38.180;-122.272;2022-09-09T06:20:01;14.6;13.6;
49686;PMS5003;36064;38.180;-122.272;2022-09-09T06:25:00;13.0;10.6;
49686;PMS5003;36064;38.180;-122.272;2022-09-09T06:30:00;18.2;13.8;
49686;PMS5003;36064;38.180;-122.272;2022-09-09T06:35:00;12.8;10.2;
49686;PMS5003;36064;38.180;-122.272;2022-09-09T06:40:00;16.4;13.2;
49686;PMS5003;36064;38.180;-122.272;2022-09-09T06:45:01;16.6;14.0;
49686;PMS5003;36064;38.180;-122.272;2022-09-09T06:50:00;14.2;12.0;
49686;PMS5003;36064;38.180;-122.272;2022-09-09T06:55:00;14.2;11.6;
49686;PMS5003;36064;38.180;-122.272;2022-09-09T07:00:01;13.4;12.0;
49686;PMS5003;36064;38.180;-122.272;2022-09-09T07:05:00;13.6;11.4;
49686;PMS5003;36064;38.180;-122.272;2022-09-09T07:10:00;12.6;10.2;
49686;PMS5003;36064;38.180;-122.272;2022-09-09T07:15:00;16.4;14.8;
49686;PMS5003;36064;38.180;-122.272;2022-09-09T07:20:01;14.6;12.4;
49686;PMS5003;36064;38.180;-122.272;2022-09-09T07:25:00;14.8;12.6;
49686;PMS5003;36064;38.180;-122.272;2022-09-09T07:30:00;14.8;11.6;
49686;PMS5003;36064;38.180;-122.272;2022-09-09T07:35:00;13.2;11.2;
49686;PMS5003;36064;38.180;-122.272;2022-09-09T07:40:00;15.0;12.8;
49686;PMS5003;36064;38.180;-122.272;2022-09-09T07:45:00;16.4;12.2;
49686;PMS5003;36064;38.180;-122.272;2022-09-09T07:50:01;18.4;14.4;
49686;PMS5003;36064;38.180;-122.272;2022-09-09T07:55:00;17.0;14.2;
49686;PMS5003;36064;38.180;-122.272;2022-09-09T08:00:01;22.2;17.8;
49686;PMS5003;36064;38.180;-122.272;2022-09-09T08:05:00;20.6;14.2;
49686;PMS5003;36064;38.180;-122.272;2022-09-09T08:10:00;18.6;15.4;
49686;PMS5003;36064;38.180;-122.272;2022-09-09T08:15:00;16.6;14.2;
49686;PMS5003;36064;38.180;-122.272;2022-09-09T08:20:00;17.2;14.4;
49686;PMS5003;36064;38.180;-122.272;2022-09-09T08:25:00;17.4;14.2;
49686;PMS5003;36064;38.180;-122.272;2022-09-09T08:30:00;20.2;18.0;
49686;PMS5003;36064;38.180;-122.272;2022-09-09T08:35:00;20.0;16.2;
49686;PMS5003;36064;38.180;-122.272;2022-09-09T08:40:00;17.6;14.2;
49686;PMS5003;36064;38.180;-122.272;2022-09-09T08:45:05;17.6;12.2;
49686;PMS5003;36064;38.180;-122.272;2022-09-09T08:50:05;18.6;14.6;
49686;PMS5003;36064;38.180;-122.272;2022-09-09T08:55:02;22.8;15.8;
49686;PMS5003;36064;38.180;-122.272;2022-09-09T09:00:01;20.6;14.4;
49686;PMS5003;36064;38.180;-122.272;2022-09-09T09:05:07;20.0;13.4;
49686;PMS5003;36064;38.180;-122.272;2022-09-09T09:10:02;17.8;13.4;
49686;PMS5003;36064;38.180;-122.272;2022-09-09T09:15:01;22.6;19.0;
49686;PMS5003;36064;38.180;-122.272;2022-09-09T09:20:01;23.6;16.0;
49686;PMS5003;36064;38.180;-122.272;2022-09-09T09:25:02;20.2;16.0;
49686;PMS5003;36064;38.180;-122.272;2022-09-09T09:30:02;24.2;19.0;
49686;PMS5003;36064;38.180;-122.272;2022-09-09T09:35:00;18.8;16.2;
49686;PMS5003;36064;38.180;-122.272;2022-09-09T09:40:08;19.8;16.0;
49686;PMS5003;36064;38.180;-122.272;2022-09-09T09:45:07;19.6;14.6;
49686;PMS5003;36064;38.180;-122.272;2022-09-09T09:50:00;18.8;16.2;
49686;PMS5003;36064;38.180;-122.272;2022-09-09T09:55:02;17.0;14.8;
49686;PMS5003;36064;38.180;-122.272;2022-09-09T10:00:03;16.6;13.6;
49686;PMS5003;36064;38.180;-122.272;2022-09-09T10:05:01;23.4;19.4;
49686;PMS5003;36064;38.180;-122.272;2022-09-09T10:10:00;16.0;13.4;
49686;PMS5003;36064;38.180;-122.272;2022-09-09T10:15:02;16.4;13.6;
49686;PMS5003;36064;38.180;-122.272;2022-09-09T10:20:14;17.4;14.0;
49686;PMS5003;36064;38.180;-122.272;2022-09-09T10:25:04;17.2;14.0;
49686;PMS5003;36064;38.180;-122.272;2022-09-09T10:30:03;19.0;17.8;
49686;PMS5003;36064;38.180;-122.272;2022-09-09T10:35:02;19.2;15.4;
49686;PMS5003;36064;38.180;-122.272;2022-09-09T10:40:02;20.4;16.2;
49686;PMS5003;36064;38.180;-122.272;2022-09-09T10:45:04;16.0;12.4;
49686;PMS5003;36064;38.180;-122.272;2022-09-09T10:50:06;23.8;18.4;
49686;PMS5003;36064;38.180;-122.272;2022-09-09T10:55:02;23.0;17.8;
49686;PMS5003;36064;38.180;-122.272;2022-09-09T11:00:02;17.4;15.2;
49686;PMS5003;36064;38.180;-122.272;2022-09-09T11:05:02;19.8;16.0;
49686;PMS5003;36064;38.180;-122.272;2022-09-09T11:10:02;20.6;19.8;
49686;PMS5003;36064;38.180;-122.272;2022-09-09T11:15:03;16.6;14.6;
49686;PMS5003;36064;38.180;-122.272;2022-09-09T11:20:01;23.4;17.8;
49686;PMS5003;36064;38.180;-122.272;2022-09-09T11:25:01;22.6;17.8;
49686;PMS5003;36064;38.180;-122.272;2022-09-09T11:30:06;17.8;13.2;
49686;PMS5003;36064;38.180;-122.272;2022-09-09T11:35:02;17.4;12.4;
49686;PMS5003;36064;38.180;-122.272;2022-09-09T11:45:08;19.2;15.6;
49686;PMS5003;36064;38.180;-122.272;2022-09-09T11:50:07;18.0;15.2;
49686;PMS5003;36064;38.180;-122.272;2022-09-09T11:55:07;15.8;13.8;
49686;PMS5003;36064;38.180;-122.272;2022-09-09T12:00:01;15.0;12.0;
49686;PMS5003;36064;38.180;-122.272;2022-09-09T12:05:02;19.0;11.8;
49686;PMS5003;36064;38.180;-122.272;2022-09-09T12:10:02;17.6;17.2;
49686;PMS5003;36064;38.180;-122.272;2022-09-09T12:15:02;18.2;15.0;
49686;PMS5003;36064;38.180;-122.272;2022-09-09T12:20:02;22.8;19.2;
49686;PMS5003;36064;38.180;-122.272;2022-09-09T12:25:03;19.4;13.8;
49686;PMS5003;36064;38.180;-122.272;2022-09-09T12:30:02;17.8;15.6;
49686;PMS5003;36064;38.180;-122.272;2022-09-09T12:35:02;19.8;16.8;
49686;PMS5003;36064;38.180;-122.272;2022-09-09T12:40:01;19.0;12.8;
49686;PMS5003;36064;38.180;-122.272;2022-09-09T12:45:02;17.0;15.2;
49686;PMS5003;36064;38.180;-122.272;2022-09-09T12:50:00;16.2;15.4;
49686;PMS5003;36064;38.180;-122.272;2022-09-09T12:55:01;18.2;15.2;
49686;PMS5003;36064;38.180;-122.272;2022-09-09T13:00:05;15.8;14.2;
49686;PMS5003;36064;38.180;-122.272;2022-09-09T13:05:06;19.8;17.6;
49686;PMS5003;36064;38.180;-122.272;2022-09-09T13:10:00;20.4;15.4;
49686;PMS5003;36064;38.180;-122.272;2022-09-09T13:15:01;16.6;13.2;
49686;PMS5003;36064;38.180;-122.272;2022-09-09T13:20:01;20.2;14.8;
49686;PMS5003;36064;38.180;-122.272;2022-09-09T13:25:02;18.6;15.2;
49686;PMS5003;36064;38.180;-122.272;2022-09-09T13:30:00;20.6;17.0;
49686;PMS5003;36064;38.180;-122.272;2022-09-09T13:35:01;21.2;17.4;
49686;PMS5003;36064;38.180;-122.272;2022-09-09T13:40:00;17.6;16.0;
49686;PMS5003;36064;38.180;-122.272;2022-09-09T13:45:01;22.2;19.2;
49686;PMS5003;36064;38.180;-122.272;2022-09-09T13:55:00;18.6;15.6;
49686;PMS5003;36064;38.180;-122.272;2022-09-09T14:00:01;22.6;17.2;
49686;PMS5003;36064;38.180;-122.272;2022-09-09T14:05:01;20.8;19.0;
49686;PMS5003;36064;38.180;-122.272;2022-09-09T14:10:00;19.0;17.2;
49686;PMS5003;36064;38.180;-122.272;2022-09-09T14:15:00;20.4;16.8;
49686;PMS5003;36064;38.180;-122.272;2022-09-09T14:20:00;25.0;19.0;
49686;PMS5003;36064;38.180;-122.272;2022-09-09T14:25:00;22.6;20.2;
49686;PMS5003;36064;38.180;-122.272;2022-09-09T14:30:00;24.4;20.0;
49686;PMS5003;36064;38.180;-122.272;2022-09-09T14:35:00;20.2;17.4;
49686;PMS5003;36064;38.180;-122.272;2022-09-09T14:40:00;15.6;15.8;
49686;PMS5003;36064;38.180;-122.272;2022-09-09T14:45:01;16.0;13.0;
49686;PMS5003;36064;38.180;-122.272;2022-09-09T14:50:00;18.8;15.6;
49686;PMS5003;36064;38.180;-122.272;2022-09-09T14:55:00;19.4;16.6;
49686;PMS5003;36064;38.180;-122.272;2022-09-09T15:00:01;20.6;18.0;
49686;PMS5003;36064;38.180;-122.272;2022-09-09T15:05:00;21.2;17.4;
49686;PMS5003;36064;38.180;-122.272;2022-09-09T15:10:00;23.4;20.8;
49686;PMS5003;36064;38.180;-122.272;2022-09-09T15:15:01;21.4;16.2;
49686;PMS5003;36064;38.180;-122.272;2022-09-09T15:20:01;17.4;13.6;
49686;PMS5003;36064;38.180;-122.272;2022-09-09T15:25:00;23.2;17.0;
49686;PMS5003;36064;38.180;-122.272;2022-09-09T15:30:00;16.8;13.0;
49686;PMS5003;36064;38.180;-122.272;2022-09-09T15:35:00;21.2;16.2;
49686;PMS5003;36064;38.180;-122.272;2022-09-09T15:40:00;26.4;22.0;
49686;PMS5003;36064;38.180;-122.272;2022-09-09T15:45:00;17.6;14.8;
49686;PMS5003;36064;38.180;-122.272;2022-09-09T15:50:00;22.6;19.2;
49686;PMS5003;36064;38.180;-122.272;2022-09-09T15:55:00;24.4;19.2;
49686;PMS5003;36064;38.180;-122.272;2022-09-09T16:00:01;23.0;17.6;
49686;PMS5003;36064;38.180;-122.272;2022-09-09T16:05:01;22.8;15.6;
49686;PMS5003;36064;38.180;-122.272;2022-09-09T16:10:00;17.4;15.4;
49686;PMS5003;36064;38.180;-122.272;2022-09-09T16:15:00;20.0;17.6;
49686;PMS5003;36064;38.180;-122.272;2022-09-09T16:20:01;24.0;18.6;
49686;PMS5003;36064;38.180;-122.272;2022-09-09T16:25:00;17.0;13.8;
49686;PMS5003;36064;38.180;-122.272;2022-09-09T16:30:01;22.4;18.6;
49686;PMS5003;36064;38.180;-122.272;2022-09-09T16:35:01;21.8;17.6;
49686;PMS5003;36064;38.180;-122.272;2022-09-09T16:40:01;16.4;14.8;
49686;PMS5003;36064;38.180;-122.272;2022-09-09T16:45:01;20.8;16.4;
49686;PMS5003;36064;38.180;-122.272;2022-09-09T16:50:00;20.4;17.0;
49686;PMS5003;36064;38.180;-122.272;2022-09-09T16:55:00;27.4;21.0;
49686;PMS5003;36064;38.180;-122.272;2022-09-09T17:00:01;23.8;17.6;
49686;PMS5003;36064;38.180;-122.272;2022-09-09T17:05:00;18.0;12.8;
49686;PMS5003;36064;38.180;-122.272;2022-09-09T17:10:00;20.2;15.4;
49686;PMS5003;36064;38.180;-122.272;2022-09-09T17:15:00;24.4;17.2;
49686;PMS5003;36064;38.180;-122.272;2022-09-09T17:20:01;18.2;16.6;
49686;PMS5003;36064;38.180;-122.272;2022-09-09T17:25:00;19.8;15.6;
49686;PMS5003;36064;38.180;-122.272;2022-09-09T17:30:00;17.0;15.4;
49686;PMS5003;36064;38.180;-122.272;2022-09-09T17:35:01;17.2;12.4;
49686;PMS5003;36064;38.180;-122.272;2022-09-09T17:40:00;17.8;17.0;
49686;PMS5003;36064;38.180;-122.272;2022-09-09T17:45:00;14.8;14.0;
49686;PMS5003;36064;38.180;-122.272;2022-09-09T17:50:00;20.8;15.4;
49686;PMS5003;36064;38.180;-122.272;2022-09-09T17:55:00;25.4;18.8;
49686;PMS5003;36064;38.180;-122.272;2022-09-09T18:00:00;25.8;18.8;
49686;PMS5003;36064;38.180;-122.272;2022-09-09T18:05:00;18.4;13.4;
49686;PMS5003;36064;38.180;-122.272;2022-09-09T18:10:00;20.6;15.2;
49686;PMS5003;36064;38.180;-122.272;2022-09-09T18:15:03;24.8;19.4;
49686;PMS5003;36064;38.180;-122.272;2022-09-09T18:20:00;19.8;17.4;
49686;PMS5003;36064;38.180;-122.272;2022-09-09T18:25:00;17.0;16.4;
49686;PMS5003;36064;38.180;-122.272;2022-09-09T18:30:01;17.4;14.6;
49686;PMS5003;36064;38.180;-122.272;2022-09-09T18:35:00;15.8;12.4;
49686;PMS5003;36064;38.180;-122.272;2022-09-09T18:40:00;19.4;13.4;
49686;PMS5003;36064;38.180;-122.272;2022-09-09T18:45:00;21.2;15.2;
49686;PMS5003;36064;38.180;-122.272;2022-09-09T18:50:00;17.8;14.6;
49686;PMS5003;36064;38.180;-122.272;2022-09-09T18:55:00;15.0;11.8;
49686;PMS5003;36064;38.180;-122.272;2022-09-09T19:00:00;13.0;11.2;
49686;PMS5003;36064;38.180;-122.272;2022-09-09T19:05:00;16.4;12.4;
49686;PMS5003;36064;38.180;-122.272;2022-09-09T19:10:00;17.8;15.0;
49686;PMS5003;36064;38.180;-122.272;2022-09-09T19:15:00;21.2;16.2;
49686;PMS5003;36064;38.180;-122.272;2022-09-09T19:20:01;21.8;14.8;
49686;PMS5003;36064;38.180;-122.272;2022-09-09T19:25:00;14.6;12.2;
49686;PMS5003;36064;38.180;-122.272;2022-09-09T19:30:01;20.6;15.6;
49686;PMS5003;36064;38.180;-122.272;2022-09-09T19:35:00;19.4;16.2;
49686;PMS5003;36064;38.180;-122.272;2022-09-09T19:40:00;19.4;16.4;
49686;PMS5003;36064;38.180;-122.272;2022-09-09T19:45:00;18.2;14.6;
49686;PMS5003;36064;38.180;-122.272;2022-09-09T19:50:00;14.0;11.0;
49686;PMS5003;36064;38.180;-122.272;2022-09-09T19:55:00;20.0;13.0;
49686;PMS5003;36064;38.180;-122.272;2022-09-09T20:00:01;18.6;14.6;
49686;PMS5003;36064;38.180;-122.272;2022-09-09T20:05:00;22.6;17.4;
49686;PMS5003;36064;38.180;-122.272;2022-09-09T20:10:00;18.8;13.6;
49686;PMS5003;36064;38.180;-122.272;2022-09-09T20:15:00;18.6;14.0;
49686;PMS5003;36064;38.180;-122.272;2022-09-09T20:20:00;17.0;16.2;
49686;PMS5003;36064;38.180;-122.272;2022-09-09T20:25:00;16.4;13.2;
49686;PMS5003;36064;38.180;-122.272;2022-09-09T20:30:00;19.0;13.8;
49686;PMS5003;36064;38.180;-122.272;2022-09-09T20:35:00;16.4;13.6;
49686;PMS5003;36064;38.180;-122.272;2022-09-09T20:40:00;14.0;11.6;
49686;PMS5003;36064;38.180;-122.272;2022-09-09T20:45:00;16.2;14.0;
49686;PMS5003;36064;38.180;-122.272;2022-09-09T20:50:00;16.8;14.2;
49686;PMS5003;36064;38.180;-122.272;2022-09-09T20:55:00;15.8;13.2;
49686;PMS5003;36064;38.180;-122.272;2022-09-09T21:00:01;17.2;15.0;
49686;PMS5003;36064;38.180;-122.272;2022-09-09T21:05:00;19.2;17.2;
49686;PMS5003;36064;38.180;-122.272;2022-09-09T21:10:00;15.8;13.0;
49686;PMS5003;36064;38.180;-122.272;2022-09-09T21:15:00;17.0;14.4;
49686;PMS5003;36064;38.180;-122.272;2022-09-09T21:20:01;17.8;15.6;
49686;PMS5003;36064;38.180;-122.272;2022-09-09T21:25:00;20.6;16.4;
49686;PMS5003;36064;38.180;-122.272;2022-09-09T21:30:00;14.4;13.6;
49686;PMS5003;36064;38.180;-122.272;2022-09-09T21:35:01;15.4;14.0;
49686;PMS5003;36064;38.180;-122.272;2022-09-09T21:40:00;19.6;15.8;
49686;PMS5003;36064;38.180;-122.272;2022-09-09T21:45:01;18.4;16.0;
49686;PMS5003;36064;38.180;-122.272;2022-09-09T21:50:00;16.4;13.0;
49686;PMS5003;36064;38.180;-122.272;2022-09-09T21:55:00;16.8;14.6;
49686;PMS5003;36064;38.180;-122.272;2022-09-09T22:00:00;15.6;14.8;
49686;PMS5003;36064;38.180;-122.272;2022-09-09T22:05:00;16.2;15.4;
49686;PMS5003;36064;38.180;-122.272;2022-09-09T22:10:00;18.6;14.6;
49686;PMS5003;36064;38.180;-122.272;2022-09-09T22:15:01;16.4;13.8;
49686;PMS5003;36064;38.180;-122.272;2022-09-09T22:20:01;20.0;17.2;
49686;PMS5003;36064;38.180;-122.272;2022-09-09T22:25:00;17.8;13.8;
49686;PMS5003;36064;38.180;-122.272;2022-09-09T22:30:00;14.6;13.8;
49686;PMS5003;36064;38.180;-122.272;2022-09-09T22:35:00;16.8;14.8;
49686;PMS5003;36064;38.180;-122.272;2022-09-09T22:40:00;13.6;12.4;
49686;PMS5003;36064;38.180;-122.272;2022-09-09T22:45:00;16.6;12.4;
49686;PMS5003;36064;38.180;-122.272;2022-09-09T22:50:00;15.4;14.2;
49686;PMS5003;36064;38.180;-122.272;2022-09-09T22:55:00;15.6;12.8;
49686;PMS5003;36064;38.180;-122.272;2022-09-09T23:00:01;18.0;15.0;
49686;PMS5003;36064;38.180;-122.272;2022-09-09T23:05:00;17.2;14.8;
49686;PMS5003;36064;38.180;-122.272;2022-09-09T23:10:00;16.6;14.6;
49686;PMS5003;36064;38.180;-122.272;2022-09-09T23:15:00;14.0;12.2;
49686;PMS5003;36064;38.180;-122.272;2022-09-09T23:20:01;15.6;12.8;
49686;PMS5003;36064;38.180;-122.272;2022-09-09T23:25:00;15.2;13.4;
49686;PMS5003;36064;38.180;-122.272;2022-09-09T23:30:00;16.4;13.6;
49686;PMS5003;36064;38.180;-122.272;2022-09-09T23:35:00;15.2;12.0;
49686;PMS5003;36064;38.180;-122.272;2022-09-09T23:40:00;19.0;15.4;
49686;PMS5003;36064;38.180;-122.272;2022-09-09T23:45:00;19.2;14.0;
49686;PMS5003;36064;38.180;-122.272;2022-09-09T23:50:01;18.0;14.2;
49686;PMS5003;36064;38.180;-122.272;2022-09-09T23:55:01;16.4;14.8;
